Time;durP1;ratioP1;P1;durP2;ratioP2;P2;SDS_P1;SDS_P2;PMS_P1;PMS_P2;Temp;Humidity;BMP_temperature;BMP_pressure;BME280_temperature;BME280_humidity;BME280_pressure;Samples;Min_cycle;Max_cycle;Signal;HPM_P1;HPM_P2
2020/12/23 00:02:55;;;;;;;;;29.33;29.33;;;;;-0.55;70.00;102547.38;4438148;32;8883;-84
2020/12/23 00:05:50;;;;;;;;;39.33;36.00;;;;;-0.50;69.94;102544.87;4432431;32;8900;-83
2020/12/23 00:08:46;;;;;;;;;41.33;41.33;;;;;-0.43;69.64;102543.00;4436024;32;8922;-83
2020/12/23 00:11:41;;;;;;;;;39.67;36.67;;;;;-0.31;69.44;102551.31;4433356;32;8880;-84
2020/12/23 00:14:10;;;;;;;;;35.33;31.00;;;;;-0.31;69.82;102548.59;4435640;32;8938;-83
2020/12/23 00:16:41;;;;;;;;;42.33;40.33;;;;;-0.60;70.15;102545.31;4433210;32;9044;-83
2020/12/23 00:19:38;;;;;;;;;51.67;41.33;;;;;-0.49;70.31;102545.72;4434864;32;8938;-84
2020/12/23 00:22:27;;;;;;;;;42.33;39.00;;;;;-0.51;70.16;102540.50;4436584;32;8895;-84
2020/12/23 00:25:23;;;;;;;;;45.67;44.33;;;;;-0.65;70.83;102544.28;4433751;32;8880;-82
2020/12/23 00:28:19;;;;;;;;;38.33;36.67;;;;;-0.57;70.55;102539.44;4433004;32;8939;-83
2020/12/23 00:30:46;;;;;;;;;35.33;35.33;;;;;-0.62;70.72;102531.09;4432876;32;8925;-83
2020/12/23 00:33:43;;;;;;;;;50.50;46.25;;;;;-0.61;70.75;102532.78;4427629;32;9007;-83
2020/12/23 00:36:40;;;;;;;;;52.33;46.67;;;;;-0.60;70.68;102530.91;4427894;32;8980;-83
2020/12/23 00:39:35;;;;;;;;;45.33;42.00;;;;;-0.75;70.93;102533.84;4433763;32;9018;-82
2020/12/23 00:42:31;;;;;;;;;47.33;40.67;;;;;-0.67;71.41;102546.38;4433015;32;8884;-83
2020/12/23 00:45:26;;;;;;;;;58.33;45.00;;;;;-0.53;70.89;102537.16;4414886;32;8894;-83
2020/12/23 00:48:22;;;;;;;;;59.67;49.67;;;;;-0.42;70.52;102531.06;4429346;32;8900;-83
2020/12/23 00:51:18;;;;;;;;;54.33;48.00;;;;;-0.48;70.12;102528.34;4431823;32;8884;-83
2020/12/23 00:54:14;;;;;;;;;61.00;50.25;;;;;-0.56;70.29;102541.13;4435440;32;8918;-83
2020/12/23 00:57:10;;;;;;;;;52.25;47.00;;;;;-0.53;70.33;102530.91;4433404;32;8937;-83
2020/12/23 01:00:06;;;;;;;;;62.75;54.00;;;;;-0.57;70.39;102528.56;4433171;32;8896;-83
2020/12/23 01:03:01;;;;;;;;;53.25;46.00;;;;;-0.72;70.94;102519.00;4432563;32;8976;-83
2020/12/23 01:05:57;;;;;;;;;50.00;46.00;;;;;-0.71;70.86;102515.22;4431539;32;9733;-84
2020/12/23 01:08:42;;;;;;;;;65.00;52.00;;;;;-0.99;71.12;102508.16;4435756;32;8944;-84
2020/12/23 01:11:37;;;;;;;;;44.75;43.50;;;;;-1.08;71.83;102506.66;4427439;32;8887;-83
2020/12/23 01:14:33;;;;;;;;;62.25;53.25;;;;;-0.74;71.19;102505.63;4432306;32;8939;-84
2020/12/23 01:17:28;;;;;;;;;60.00;48.25;;;;;-0.94;71.57;102507.50;4427064;32;8911;-84
2020/12/23 01:20:24;;;;;;;;;53.33;43.67;;;;;-1.24;72.13;102504.37;4435472;32;8911;-83
2020/12/23 01:23:20;;;;;;;;;48.00;41.67;;;;;-1.36;72.51;102500.63;4432874;32;8888;-83
2020/12/23 01:26:17;;;;;;;;;51.67;47.00;;;;;-1.31;72.52;102503.53;4433491;32;8904;-83
2020/12/23 01:29:12;;;;;;;;;39.00;35.33;;;;;-0.99;71.80;102497.28;4433915;32;8908;-82
2020/12/23 01:32:08;;;;;;;;;64.25;50.00;;;;;-1.00;71.74;102498.31;4434091;32;8900;-81
2020/12/23 01:35:06;;;;;;;;;54.00;45.00;;;;;-1.14;71.93;102493.97;4433991;32;8967;-82
2020/12/23 01:38:02;;;;;;;;;42.25;39.75;;;;;-1.25;71.98;102484.53;4432385;32;8904;-82
2020/12/23 01:40:59;;;;;;;;;52.50;47.50;;;;;-1.26;72.41;102485.59;4437376;32;9024;-82
2020/12/23 01:43:56;;;;;;;;;42.75;41.50;;;;;-1.26;72.11;102479.31;4429800;32;8892;-82
2020/12/23 01:46:52;;;;;;;;;36.50;36.25;;;;;-1.46;72.91;102477.44;4434942;32;8872;-81
2020/12/23 01:49:49;;;;;;;;;40.00;33.75;;;;;-1.28;72.89;102474.09;4440660;32;8981;-82
2020/12/23 01:52:45;;;;;;;;;46.00;43.50;;;;;-1.00;72.23;102463.00;4454046;32;8945;-81
2020/12/23 01:55:46;;;;;;;;;36.33;36.33;;;;;-1.22;72.99;102458.88;4439144;32;9018;-82
2020/12/23 01:58:46;;;;;;;;;43.00;43.00;;;;;-1.31;72.90;102446.53;4433331;32;8907;-81
2020/12/23 02:01:47;;;;;;;;;64.00;52.50;;;;;-0.94;72.03;102445.03;4436241;32;8960;-81
2020/12/23 02:04:23;;;;;;;;;41.67;36.00;;;;;-0.97;71.88;102446.31;4436444;32;8972;-81
2020/12/23 02:07:05;;;;;;;;;65.50;52.50;;;;;-1.08;72.22;102452.34;4438973;32;8875;-81
2020/12/23 02:10:03;;;;;;;;;38.75;35.00;;;;;-1.05;72.56;102446.53;4435597;32;8919;-80
2020/12/23 02:12:59;;;;;;;;;57.50;49.75;;;;;-0.84;72.05;102450.87;4436110;32;8973;-81
2020/12/23 02:15:28;;;;;;;;;48.75;46.75;;;;;-0.75;71.85;102449.59;4436844;32;8976;-81
2020/12/23 02:18:24;;;;;;;;;13.50;10.25;;;;;-0.95;71.96;102446.91;4433732;32;8887;-81
2020/12/23 02:20:51;;;;;;;;;69.00;57.25;;;;;-1.11;72.31;102450.06;4436857;32;9063;-82
2020/12/23 02:23:46;;;;;;;;;67.50;54.00;;;;;-1.09;72.42;102445.25;4436526;32;8908;-82
2020/12/23 02:26:42;;;;;;;;;60.25;49.00;;;;;-0.91;71.56;102439.19;4436575;32;8968;-82
2020/12/23 02:29:27;;;;;;;;;51.33;48.33;;;;;-0.90;71.80;102443.59;4432804;32;8903;-82
2020/12/23 02:32:24;;;;;;;;;39.33;39.33;;;;;-0.82;71.82;102440.63;4447880;32;8888;-82
2020/12/23 02:35:19;;;;;;;;;57.00;48.00;;;;;-0.83;71.50;102447.13;4438460;32;8935;-82
2020/12/23 02:38:16;;;;;;;;;42.33;39.33;;;;;-0.98;71.53;102441.91;4434758;32;8884;-82
2020/12/23 02:41:12;;;;;;;;;36.33;36.33;;;;;-0.88;71.67;102445.03;4435404;32;9680;-82
2020/12/23 02:44:07;;;;;;;;;26.33;26.33;;;;;-0.82;71.19;102443.34;4434055;32;8892;-82
2020/12/23 02:47:09;;;;;;;;;36.67;35.33;;;;;-1.04;71.16;102448.19;4435641;32;8984;-81
2020/12/23 02:50:04;;;;;;;;;15.67;11.33;;;;;-1.00;70.96;102448.59;4435192;32;9006;-82
2020/12/23 02:53:00;;;;;;;;;21.33;21.33;;;;;-1.28;71.55;102451.56;4435283;32;8899;-81
2020/12/23 02:55:55;;;;;;;;;34.67;34.67;;;;;-0.90;70.97;102447.13;4434236;32;8915;-82
2020/12/23 02:58:51;;;;;;;;;41.67;41.67;;;;;-1.04;71.17;102452.78;4434108;32;9528;-82
2020/12/23 03:01:47;;;;;;;;;30.67;27.67;;;;;-0.97;71.24;102445.47;4433941;32;8895;-82
2020/12/23 03:04:43;;;;;;;;;28.33;27.33;;;;;-0.74;70.84;102447.72;4433224;32;8903;-82
2020/12/23 03:07:39;;;;;;;;;37.33;33.67;;;;;-0.64;70.57;102437.25;4434956;32;8961;-83
2020/12/23 03:10:34;;;;;;;;;52.67;48.33;;;;;-0.62;70.54;102433.25;4434335;32;8977;-82
2020/12/23 03:13:30;;;;;;;;;40.67;39.00;;;;;-0.68;70.58;102434.13;4436907;32;8887;-82
2020/12/23 03:16:26;;;;;;;;;36.00;33.67;;;;;-0.79;71.05;102436.66;4435017;32;8900;-82
2020/12/23 03:19:22;;;;;;;;;27.33;27.33;;;;;-0.74;71.29;102434.13;4435002;32;8888;-82
2020/12/23 03:21:49;;;;;;;;;23.67;23.67;;;;;-0.64;70.17;102426.37;4435795;32;8915;-81
2020/12/23 03:24:45;;;;;;;;;25.33;25.33;;;;;-0.59;69.71;102435.56;4433334;32;8895;-82
2020/12/23 03:27:42;;;;;;;;;33.00;30.67;;;;;-0.43;69.56;102428.81;4434723;32;8899;-82
2020/12/23 03:30:41;;;;;;;;;43.67;41.33;;;;;-0.48;70.16;102430.50;4434688;32;8959;-82
2020/12/23 03:33:37;;;;;;;;;44.00;43.33;;;;;-0.48;70.40;102428.59;4434420;32;8884;-82
2020/12/23 03:36:33;;;;;;;;;37.67;35.00;;;;;-0.47;70.29;102434.88;4435583;32;8884;-81
2020/12/23 03:39:29;;;;;;;;;37.67;34.67;;;;;-0.74;70.61;102423.28;4434290;32;9018;-82
2020/12/23 03:42:26;;;;;;;;;30.67;27.00;;;;;-0.66;70.69;102423.03;4449877;32;8923;-83
2020/12/23 03:45:22;;;;;;;;;26.33;26.33;;;;;-0.50;70.44;102416.28;4438776;32;9603;-82
2020/12/23 03:48:18;;;;;;;;;21.67;21.67;;;;;-0.62;70.40;102425.09;4433359;32;9620;-82
2020/12/23 03:51:16;;;;;;;;;25.67;25.00;;;;;-0.86;71.12;102428.50;4434594;32;8996;-82
2020/12/23 03:54:11;;;;;;;;;29.67;29.33;;;;;-0.66;70.82;102437.47;4436052;32;8884;-82
2020/12/23 03:57:07;;;;;;;;;39.00;36.67;;;;;-0.47;70.29;102438.44;4439091;32;9537;-82
2020/12/23 04:00:08;;;;;;;;;45.67;42.67;;;;;-0.46;70.61;102436.53;4436227;32;8980;-81
2020/12/23 04:03:04;;;;;;;;;31.00;31.00;;;;;-0.74;70.85;102434.13;4433128;32;9556;-81
2020/12/23 04:06:02;;;;;;;;;43.00;42.67;;;;;-0.77;71.68;102435.38;4431313;32;9030;-82
2020/12/23 04:08:59;;;;;;;;;37.00;35.00;;;;;-0.88;71.01;102441.47;4428754;32;8915;-83
2020/12/23 04:11:54;;;;;;;;;32.67;30.00;;;;;-1.04;70.70;102440.03;4433865;32;9684;-83
2020/12/23 04:14:52;;;;;;;;;104.00;78.00;;;;;-0.88;70.43;102445.03;4434854;32;8972;-82
2020/12/23 04:17:50;;;;;;;;;60.00;52.50;;;;;-0.89;70.21;102445.25;4435578;32;8892;-82
2020/12/23 04:20:46;;;;;;;;;40.67;34.00;;;;;-0.82;70.48;102442.53;4433266;32;8947;-83
2020/12/23 04:23:42;;;;;;;;;36.67;33.67;;;;;-0.63;70.03;102441.62;4430874;32;8895;-82
2020/12/23 04:26:37;;;;;;;;;34.67;34.67;;;;;-0.56;69.58;102439.72;4433897;32;8914;-82
2020/12/23 04:29:34;;;;;;;;;29.33;29.33;;;;;-0.54;68.89;102440.31;4432229;32;8879;-83
2020/12/23 04:32:31;;;;;;;;;37.00;33.33;;;;;-0.52;69.05;102437.41;4433825;32;8964;-81
2020/12/23 04:35:27;;;;;;;;;36.00;29.33;;;;;-0.46;69.00;102444.69;4433650;32;8880;-84
2020/12/23 04:38:23;;;;;;;;;40.67;39.33;;;;;-0.45;69.04;102438.25;4431242;32;8883;-82
2020/12/23 04:41:27;;;;;;;;;38.67;34.67;;;;;-0.44;68.56;102440.75;4434871;32;9045;-82
2020/12/23 04:44:22;;;;;;;;;46.33;42.00;;;;;-0.65;69.27;102443.72;4428349;32;8883;-81
2020/12/23 04:47:24;;;;;;;;;46.67;45.00;;;;;-0.66;69.00;102447.50;4418478;32;8898;-82
2020/12/23 04:50:22;;;;;;;;;42.67;42.00;;;;;-0.51;69.01;102444.53;4409334;32;8918;-82
2020/12/23 04:52:49;;;;;;;;;43.67;41.33;;;;;-0.61;69.34;102440.37;4418726;32;8936;-81
2020/12/23 04:55:45;;;;;;;;;61.00;48.33;;;;;-0.52;69.33;102440.16;4412789;32;8896;-82
2020/12/23 04:58:42;;;;;;;;;74.75;58.00;;;;;-0.48;68.79;102439.47;4433893;32;9596;-83
2020/12/23 05:01:37;;;;;;;;;69.00;57.50;;;;;-0.65;69.30;102441.00;4431179;32;8972;-83
2020/12/23 05:04:33;;;;;;;;;50.33;47.00;;;;;-0.66;68.91;102439.34;4432437;32;8884;-83
2020/12/23 05:07:06;;;;;;;;;56.00;48.50;;;;;-0.65;69.27;102435.56;4436572;32;8895;-83
2020/12/23 05:10:06;;;;;;;;;43.67;41.33;;;;;-0.57;69.33;102446.22;4431899;32;9076;-82
2020/12/23 05:13:04;;;;;;;;;75.75;56.00;;;;;-0.49;69.06;102448.69;4434864;32;8912;-83
2020/12/23 05:15:59;;;;;;;;;63.75;55.50;;;;;-0.68;69.13;102449.59;4422602;32;8964;-83
2020/12/23 05:18:56;;;;;;;;;61.25;54.00;;;;;-0.67;69.14;102438.50;4426717;32;9556;-81
2020/12/23 05:21:52;;;;;;;;;48.33;43.00;;;;;-0.65;69.34;102439.13;4439635;32;8957;-83
2020/12/23 05:24:52;;;;;;;;;50.33;40.67;;;;;-0.43;69.32;102444.28;4445201;32;9033;-81
2020/12/23 05:27:51;;;;;;;;;47.33;45.00;;;;;-0.44;69.10;102435.28;4425362;32;8900;-83
2020/12/23 05:30:53;;;;;;;;;43.33;40.33;;;;;-0.49;69.15;102435.09;4437660;32;8908;-79
2020/12/23 05:33:51;;;;;;;;;53.00;40.00;;;;;-0.41;68.73;102431.31;4432090;32;8915;-80
2020/12/23 05:36:46;;;;;;;;;50.00;45.00;;;;;-0.46;68.47;102434.69;4435987;32;8911;-80
2020/12/23 05:39:42;;;;;;;;;37.00;37.00;;;;;-0.54;68.40;102431.34;4434470;32;8943;-80
2020/12/23 05:42:39;;;;;;;;;34.67;33.67;;;;;-0.44;68.12;102426.31;4429647;32;8907;-80
2020/12/23 05:45:41;;;;;;;;;37.33;34.33;;;;;-0.30;67.81;102426.03;4435203;32;8914;-80
2020/12/23 05:48:39;;;;;;;;;35.33;35.33;;;;;-0.37;67.82;102422.50;4429309;32;8907;-83
2020/12/23 05:51:38;;;;;;;;;40.67;39.67;;;;;-0.33;67.63;102421.00;4435635;32;9022;-80
2020/12/23 05:54:35;;;;;;;;;57.33;48.33;;;;;-0.48;68.07;102438.66;4432578;32;8986;-79
2020/12/23 05:57:34;;;;;;;;;37.00;34.67;;;;;-0.36;68.05;102439.66;4436193;32;8945;-80
2020/12/23 06:00:16;;;;;;;;;75.75;55.25;;;;;-0.62;67.99;102443.28;4423955;32;8871;-81
2020/12/23 06:03:20;;;;;;;;;54.00;48.75;;;;;-0.65;68.10;102449.16;4434349;32;8929;-80
2020/12/23 06:06:23;;;;;;;;;42.67;38.33;;;;;-0.63;68.46;102447.06;4435878;32;8896;-81
2020/12/23 06:09:29;;;;;;;;;41.33;38.33;;;;;-0.32;67.65;102441.72;4433665;32;8941;-81
2020/12/23 06:12:31;;;;;;;;;37.67;37.00;;;;;-0.35;67.58;102444.88;4436915;32;8904;-81
2020/12/23 06:15:30;;;;;;;;;38.00;33.67;;;;;-0.35;67.60;102442.16;4435945;32;8884;-82
2020/12/23 06:18:27;;;;;;;;;30.67;29.33;;;;;-0.30;67.16;102442.34;4436171;32;8895;-81
2020/12/23 06:21:26;;;;;;;;;46.67;45.00;;;;;-0.25;67.03;102440.84;4435335;32;9029;-81
2020/12/23 06:24:22;;;;;;;;;30.00;28.67;;;;;-0.19;67.03;102429.13;4435911;32;8981;-81
2020/12/23 06:27:20;;;;;;;;;30.67;28.33;;;;;-0.19;67.15;102426.41;4436582;32;8896;-81
2020/12/23 06:30:16;;;;;;;;;35.67;30.67;;;;;-0.29;67.09;102418.72;4424213;32;8931;-79
2020/12/23 06:33:12;;;;;;;;;44.67;37.67;;;;;-0.14;67.22;102424.72;4418683;32;8917;-79
2020/12/23 06:36:11;;;;;;;;;39.00;35.67;;;;;-0.27;67.67;102416.59;4424302;32;8919;-79
2020/12/23 06:39:19;;;;;;;;;28.67;28.67;;;;;-0.14;67.05;102415.72;4435673;32;8945;-80
2020/12/23 06:42:15;;;;;;;;;38.33;33.67;;;;;-0.10;66.98;102416.94;4434689;32;8891;-79
2020/12/23 06:45:13;;;;;;;;;49.00;45.00;;;;;0.06;66.73;102413.69;4435750;32;9547;-79
2020/12/23 06:48:16;;;;;;;;;38.00;38.00;;;;;0.01;66.08;102416.25;4434072;32;8941;-79
2020/12/23 06:51:43;;;;;;;;;39.00;37.00;;;;;-0.03;66.65;102412.28;4433659;32;9609;-80
2020/12/23 06:54:48;;;;;;;;;38.67;35.67;;;;;0.03;66.07;102414.13;4435686;32;8907;-80
2020/12/23 06:57:49;;;;;;;;;33.33;33.33;;;;;0.17;65.78;102420.34;4435303;32;8964;-79
2020/12/23 07:00:45;;;;;;;;;43.67;39.00;;;;;-0.22;66.33;102426.84;4432376;32;8872;-80
2020/12/23 07:03:41;;;;;;;;;37.00;34.00;;;;;-0.05;66.64;102423.41;4435590;32;8904;-80
2020/12/23 07:06:38;;;;;;;;;49.67;45.33;;;;;0.04;66.17;102431.31;4435171;32;8911;-80
2020/12/23 07:09:06;;;;;;;;;51.00;45.67;;;;;0.05;65.83;102433.78;4435833;32;8940;-80
2020/12/23 07:12:06;;;;;;;;;24.67;24.33;;;;;0.14;66.09;102432.47;4432395;32;8927;-79
2020/12/23 07:15:12;;;;;;;;;36.33;33.33;;;;;0.27;65.40;102428.84;4421445;32;8998;-79
2020/12/23 07:18:09;;;;;;;;;33.67;31.00;;;;;0.27;65.79;102432.41;4420072;32;9102;-79
2020/12/23 07:21:07;;;;;;;;;30.33;28.67;;;;;0.13;65.59;102427.25;4419914;32;8894;-80
2020/12/23 07:24:06;;;;;;;;;70.67;58.00;;;;;0.35;64.99;102423.13;4419935;32;8914;-80
2020/12/23 07:27:03;;;;;;;;;40.00;33.67;;;;;0.32;65.42;102428.19;4422647;32;8892;-81
2020/12/23 07:30:09;;;;;;;;;43.33;38.33;;;;;0.25;65.37;102439.13;4434330;32;8950;-81
2020/12/23 07:33:12;;;;;;;;;16.67;12.33;;;;;0.39;65.39;102439.87;4413289;32;8914;-79
2020/12/23 07:36:08;;;;;;;;;43.00;42.00;;;;;0.30;65.63;102425.66;4428563;32;8915;-79
2020/12/23 07:39:04;;;;;;;;;39.33;30.33;;;;;0.53;65.09;102430.53;4419739;32;8884;-81
2020/12/23 07:42:02;;;;;;;;;27.33;25.33;;;;;0.44;65.57;102431.84;4435558;32;8943;-79
2020/12/23 07:44:58;;;;;;;;;25.33;24.67;;;;;0.42;65.49;102428.53;4435581;32;8896;-80
2020/12/23 07:47:55;;;;;;;;;23.67;23.67;;;;;0.54;65.02;102437.66;4433376;32;8904;-80
2020/12/23 07:50:56;;;;;;;;;33.67;30.33;;;;;0.38;65.47;102439.00;4423666;32;8919;-79
2020/12/23 07:53:52;;;;;;;;;31.00;30.00;;;;;0.39;65.42;102440.72;4434338;32;8896;-79
2020/12/23 07:56:47;;;;;;;;;31.67;31.67;;;;;0.53;65.30;102435.97;4418845;32;8922;-80
2020/12/23 07:59:38;;;;;;;;;41.33;34.67;;;;;0.69;64.96;102438.16;4423864;32;9580;-80
2020/12/23 08:02:29;;;;;;;;;40.00;39.33;;;;;0.66;64.85;102438.59;4434228;32;8939;-79
2020/12/23 08:05:25;;;;;;;;;27.67;24.33;;;;;0.60;65.14;102431.31;4431744;32;8884;-80
2020/12/23 08:08:26;;;;;;;;;26.67;25.67;;;;;0.80;64.62;102431.16;4434564;32;8947;-79
2020/12/23 08:11:24;;;;;;;;;26.67;22.67;;;;;0.68;64.70;102436.47;4426866;32;8903;-81
2020/12/23 08:14:07;;;;;;;;;38.00;34.67;;;;;0.78;64.65;102427.81;4434195;32;8994;-81
2020/12/23 08:17:03;;;;;;;;;28.67;28.67;;;;;0.67;65.48;102428.53;4428383;32;8960;-81
2020/12/23 08:20:04;;;;;;;;;40.33;40.33;;;;;0.79;64.85;102419.44;4419235;32;8883;-81
2020/12/23 08:23:01;;;;;;;;;25.67;25.67;;;;;1.02;64.59;102416.06;4422226;32;9077;-83
2020/12/23 08:25:58;;;;;;;;;34.67;33.33;;;;;0.92;63.92;102410.31;4433231;32;8915;-80
2020/12/23 08:28:55;;;;;;;;;22.00;22.00;;;;;0.91;64.13;102407.78;4419023;32;8894;-80
2020/12/23 08:31:54;;;;;;;;;26.00;26.00;;;;;0.94;64.13;102404.62;4418217;32;8948;-80
2020/12/23 08:34:59;;;;;;;;;35.33;32.33;;;;;1.04;63.86;102410.38;4417352;32;8902;-79
2020/12/23 08:37:56;;;;;;;;;39.00;35.67;;;;;0.83;63.76;102408.91;4422938;32;8965;-80
2020/12/23 08:40:57;;;;;;;;;30.00;21.00;;;;;0.67;64.40;102404.84;4418932;32;9620;-80
2020/12/23 08:43:53;;;;;;;;;36.33;31.67;;;;;0.75;64.35;102401.03;4418633;32;9539;-79
2020/12/23 08:46:49;;;;;;;;;24.67;24.33;;;;;0.84;64.37;102399.66;4423893;32;8896;-80
2020/12/23 08:49:47;;;;;;;;;37.67;31.00;;;;;0.88;63.99;102397.34;4433136;32;8914;-80
2020/12/23 08:52:50;;;;;;;;;24.00;24.00;;;;;0.93;64.57;102386.63;4434299;32;8896;-80
2020/12/23 08:55:46;;;;;;;;;23.33;23.33;;;;;0.66;64.14;102389.56;4432529;32;8884;-80
2020/12/23 08:58:49;;;;;;;;;28.67;27.67;;;;;0.75;64.02;102390.13;4433507;32;8926;-80
2020/12/23 09:01:44;;;;;;;;;46.00;42.67;;;;;0.73;64.03;102386.81;4433851;32;8946;-80
2020/12/23 09:04:40;;;;;;;;;34.00;33.00;;;;;0.88;63.93;102390.00;4433466;32;8931;-79
2020/12/23 09:07:40;;;;;;;;;45.67;42.33;;;;;1.08;63.66;102378.91;4434771;32;8906;-80
2020/12/23 09:10:37;;;;;;;;;29.67;29.67;;;;;1.11;63.47;102383.91;4433941;32;8946;-81
2020/12/23 09:13:33;;;;;;;;;37.00;31.00;;;;;1.01;63.75;102372.69;4433432;32;8876;-80
2020/12/23 09:16:31;;;;;;;;;37.67;37.67;;;;;1.14;63.39;102368.97;4433319;32;8982;-80
2020/12/23 09:19:58;;;;;;;;;35.33;33.67;;;;;1.22;63.34;102368.66;4433819;32;8876;-78
2020/12/23 09:22:54;;;;;;;;;54.67;45.67;;;;;1.27;63.21;102366.09;4430144;32;9020;-79
2020/12/23 09:25:51;;;;;;;;;39.00;39.00;;;;;1.19;63.09;102355.50;4433862;32;8923;-80
2020/12/23 09:28:46;;;;;;;;;27.67;27.67;;;;;1.32;62.61;102360.81;4432223;32;8981;-79
2020/12/23 09:31:49;;;;;;;;;47.67;40.67;;;;;1.41;62.36;102353.16;4432400;32;8904;-79
2020/12/23 09:34:45;;;;;;;;;43.33;41.67;;;;;1.39;62.73;102354.22;4434165;32;8942;-80
2020/12/23 09:37:43;;;;;;;;;33.00;33.00;;;;;1.31;62.45;102359.16;4437883;32;8903;-80
2020/12/23 09:40:56;;;;;;;;;40.67;38.00;;;;;1.34;62.42;102354.06;4433641;32;8966;-81
2020/12/23 09:43:52;;;;;;;;;43.67;42.67;;;;;1.45;62.38;102352.44;4435037;32;8976;-80
2020/12/23 09:46:49;;;;;;;;;44.00;42.67;;;;;1.27;62.52;102350.56;4432192;32;8891;-80
2020/12/23 09:49:44;;;;;;;;;25.00;22.00;;;;;1.43;62.54;102346.41;4432814;32;8888;-82
2020/12/23 09:52:40;;;;;;;;;31.67;31.00;;;;;1.45;62.23;102352.44;4433175;32;8935;-81
2020/12/23 09:55:39;;;;;;;;;97.00;71.00;;;;;1.53;62.45;102354.84;4434601;32;8941;-80
2020/12/23 09:58:40;;;;;;;;;45.67;41.67;;;;;1.70;62.24;102341.44;4432055;32;8892;-78
2020/12/23 10:01:36;;;;;;;;;28.00;25.00;;;;;1.61;61.79;102340.06;4423632;32;9568;-81
2020/12/23 10:04:32;;;;;;;;;43.00;40.00;;;;;1.69;61.97;102342.50;4436440;32;8900;-81
2020/12/23 10:07:28;;;;;;;;;43.33;41.33;;;;;1.73;62.14;102340.12;4434907;32;8892;-80
2020/12/23 10:10:25;;;;;;;;;40.00;35.33;;;;;1.81;61.25;102328.87;4436190;32;8892;-81
2020/12/23 10:13:22;;;;;;;;;50.00;40.67;;;;;1.81;61.23;102329.72;4441779;32;8937;-78
2020/12/23 10:16:17;;;;;;;;;51.67;47.67;;;;;1.82;61.78;102323.19;4445783;32;8892;-78
2020/12/23 10:19:13;;;;;;;;;36.67;35.33;;;;;1.82;61.54;102325.09;4439106;32;8892;-79
2020/12/23 10:22:10;;;;;;;;;36.67;35.00;;;;;2.05;60.82;102324.31;4436192;32;9582;-80
2020/12/23 10:25:09;;;;;;;;;23.00;23.00;;;;;2.05;60.42;102327.03;4435526;32;8904;-82
2020/12/23 10:28:04;;;;;;;;;27.33;26.00;;;;;1.84;60.52;102315.63;4437772;32;8938;-80
2020/12/23 10:30:34;;;;;;;;;21.33;21.33;;;;;1.84;60.64;102318.34;4437238;32;8886;-81
2020/12/23 10:33:17;;;;;;;;;38.00;35.00;;;;;1.70;60.72;102319.59;4437525;32;8956;-81
2020/12/23 10:36:14;;;;;;;;;35.00;27.33;;;;;1.90;60.60;102314.66;4436073;32;8938;-82
2020/12/23 10:39:09;;;;;;;;;38.33;36.00;;;;;2.10;60.52;102317.09;4438559;32;9009;-81
2020/12/23 10:42:05;;;;;;;;;30.67;30.00;;;;;1.90;60.99;102316.56;4438075;32;9629;-82
2020/12/23 10:45:01;;;;;;;;;33.33;33.33;;;;;1.92;61.26;102307.09;4434689;32;9552;-80
2020/12/23 10:47:56;;;;;;;;;47.33;40.00;;;;;1.98;61.00;102302.59;4435480;32;8907;-80
2020/12/23 10:50:53;;;;;;;;;47.00;44.33;;;;;2.17;60.48;102311.53;4434492;32;8892;-81
2020/12/23 10:53:49;;;;;;;;;52.67;39.00;;;;;2.11;61.03;102305.09;4424796;32;9556;-80
2020/12/23 10:56:45;;;;;;;;;47.00;45.33;;;;;2.05;60.83;102306.03;4434393;32;8968;-80
2020/12/23 10:59:42;;;;;;;;;49.00;44.00;;;;;1.92;60.81;102315.28;4434057;32;8968;-80
2020/12/23 11:02:37;;;;;;;;;47.33;41.67;;;;;2.09;60.96;102306.41;4435013;32;9576;-80
2020/12/23 11:05:33;;;;;;;;;60.67;49.00;;;;;2.11;60.71;102309.75;4434297;32;8896;-80
2020/12/23 11:08:29;;;;;;;;;45.33;44.00;;;;;2.07;60.67;102303.06;4436090;32;8904;-81
2020/12/23 11:11:27;;;;;;;;;36.33;35.00;;;;;2.07;60.66;102301.19;4433805;32;8904;-80
2020/12/23 11:14:23;;;;;;;;;36.67;35.33;;;;;1.95;60.61;102287.53;4433395;32;8963;-79
2020/12/23 11:17:19;;;;;;;;;53.00;47.33;;;;;2.19;60.39;102284.81;4428104;32;8922;-81
2020/12/23 11:20:15;;;;;;;;;45.33;43.67;;;;;2.00;60.54;102284.09;4439108;32;9022;-80
2020/12/23 11:23:26;;;;;;;;;50.00;44.33;;;;;2.00;60.61;102291.47;4446484;32;8944;-78
2020/12/23 11:26:24;;;;;;;;;30.67;30.67;;;;;1.95;60.85;102289.41;4442456;32;9010;-80
2020/12/23 11:29:19;;;;;;;;;34.00;33.67;;;;;1.95;60.99;102290.25;4435573;32;8942;-80
2020/12/23 11:32:02;;;;;;;;;39.00;39.00;;;;;1.99;60.71;102290.59;4436708;32;8929;-81
2020/12/23 11:34:40;;;;;;;;;32.67;30.00;;;;;2.13;60.52;102292.03;4433113;32;8972;-80
2020/12/23 11:37:36;;;;;;;;;33.33;32.00;;;;;1.98;61.13;102288.94;4434127;32;9002;-80
2020/12/23 11:40:32;;;;;;;;;40.67;38.67;;;;;2.10;59.95;102284.34;4425469;32;8888;-80
2020/12/23 11:43:28;;;;;;;;;40.33;39.00;;;;;2.03;60.31;102288.25;4433550;32;9014;-80
2020/12/23 11:46:23;;;;;;;;;46.33;44.00;;;;;2.01;60.16;102288.50;4431753;32;8903;-80
2020/12/23 11:49:20;;;;;;;;;38.67;33.67;;;;;2.06;60.18;102285.88;4425458;32;9556;-80
2020/12/23 11:52:15;;;;;;;;;42.33;40.67;;;;;2.12;60.22;102287.66;4434117;32;8957;-80
2020/12/23 11:55:11;;;;;;;;;40.00;39.00;;;;;2.08;60.48;102293.84;4434484;32;8962;-81
2020/12/23 11:58:07;;;;;;;;;34.00;34.00;;;;;1.96;60.49;102288.34;4434139;32;8930;-80
2020/12/23 12:01:03;;;;;;;;;34.00;34.00;;;;;2.16;60.24;102283.41;4429870;32;9584;-81
2020/12/23 12:04:00;;;;;;;;;40.67;37.00;;;;;2.12;60.08;102276.75;4449208;32;8952;-81
2020/12/23 12:06:59;;;;;;;;;43.33;41.33;;;;;2.15;60.23;102276.28;4448277;32;8949;-80
2020/12/23 12:09:54;;;;;;;;;41.00;37.00;;;;;2.01;60.35;102282.19;4420439;32;8956;-79
2020/12/23 12:12:50;;;;;;;;;67.33;54.00;;;;;1.86;60.60;102272.56;4428600;32;8923;-80
2020/12/23 12:15:46;;;;;;;;;49.33;45.67;;;;;2.03;60.76;102277.34;4433732;32;8923;-80
2020/12/23 12:18:42;;;;;;;;;51.00;46.00;;;;;2.13;60.65;102274.84;4432701;32;8900;-81
2020/12/23 12:21:26;;;;;;;;;35.00;31.00;;;;;2.02;60.97;102281.97;4434018;32;8891;-81
2020/12/23 12:24:22;;;;;;;;;52.00;44.33;;;;;1.97;60.89;102272.81;4432404;32;9548;-80
2020/12/23 12:26:50;;;;;;;;;69.33;58.33;;;;;2.11;61.00;102275.09;4434711;32;8918;-79
2020/12/23 12:29:20;;;;;;;;;62.67;55.00;;;;;2.17;60.79;102273.31;4435296;32;8926;-79
2020/12/23 12:32:16;;;;;;;;;68.67;57.67;;;;;2.05;60.86;102272.47;4432219;32;8879;-79
2020/12/23 12:35:13;;;;;;;;;39.67;33.33;;;;;2.09;61.11;102274.50;4431077;32;8908;-79
2020/12/23 12:38:10;;;;;;;;;40.33;38.00;;;;;2.07;61.41;102268.44;4417080;32;8894;-77
2020/12/23 12:41:05;;;;;;;;;46.67;44.00;;;;;2.23;60.81;102277.84;4423141;32;8935;-80
2020/12/23 12:43:34;;;;;;;;;57.00;45.33;;;;;2.28;60.66;102275.22;4433488;32;8902;-80
2020/12/23 12:46:31;;;;;;;;;31.67;31.67;;;;;2.27;60.94;102279.00;4432909;32;8933;-80
2020/12/23 12:49:27;;;;;;;;;34.00;33.00;;;;;2.31;60.80;102274.75;4433061;32;8900;-80
2020/12/23 12:52:22;;;;;;;;;37.00;32.67;;;;;2.25;60.81;102277.59;4434031;32;9020;-80
2020/12/23 12:54:54;;;;;;;;;31.67;29.33;;;;;2.22;60.87;102267.97;4434067;32;8890;-81
2020/12/23 12:57:49;;;;;;;;;48.67;45.33;;;;;2.36;60.30;102274.03;4432176;32;8888;-80
2020/12/23 13:00:36;;;;;;;;;26.00;23.67;;;;;2.26;61.04;102274.63;4449084;32;8899;-80
2020/12/23 13:03:32;;;;;;;;;41.00;40.00;;;;;2.17;61.10;102279.59;4438130;32;8889;-80
2020/12/23 13:06:28;;;;;;;;;45.67;44.67;;;;;2.21;61.30;102274.50;4448616;32;8901;-81
2020/12/23 13:09:23;;;;;;;;;38.67;36.67;;;;;2.10;61.17;102276.16;4451158;32;8900;-81
2020/12/23 13:12:19;;;;;;;;;39.00;38.33;;;;;2.02;61.42;102273.78;4450207;32;8904;-80
2020/12/23 13:15:14;;;;;;;;;27.00;24.33;;;;;2.12;61.13;102279.47;4439269;32;8893;-80
2020/12/23 13:18:13;;;;;;;;;30.33;26.33;;;;;2.05;61.37;102283.38;4449754;32;8928;-81
2020/12/23 13:21:11;;;;;;;;;33.67;33.00;;;;;2.21;61.16;102293.59;4448536;32;8932;-80
2020/12/23 13:24:07;;;;;;;;;55.00;47.00;;;;;2.07;61.72;102286.69;4438596;32;8943;-80
2020/12/23 13:27:03;;;;;;;;;32.33;32.33;;;;;2.06;61.59;102288.59;4448520;32;8909;-80
2020/12/23 13:30:00;;;;;;;;;47.33;40.33;;;;;2.09;61.55;102290.87;4427831;32;9000;-80
2020/12/23 13:32:56;;;;;;;;;50.33;43.33;;;;;2.20;61.31;102289.22;4417131;32;8955;-80